createdAt,value
2023-08-17T18:45:52.985Z,21.95
2023-08-17T18:48:25.779Z,21.50
2023-08-17T19:20:14.085Z,20.33
2023-08-17T19:22:45.805Z,19.80
2023-08-17T19:25:17.218Z,19.77
2023-08-17T19:27:48.603Z,18.63
2023-08-17T19:30:21.313Z,20.40
2023-08-17T19:33:00.884Z,20.47
2023-08-17T19:35:35.854Z,19.70
2023-08-17T19:38:07.725Z,18.60
2023-08-17T19:40:39.854Z,19.20
2023-08-17T19:43:11.635Z,22.10
2023-08-17T19:45:46.752Z,22.80
2023-08-17T19:48:18.240Z,19.13
2023-08-17T19:50:55.936Z,26.10
2023-08-17T19:53:26.731Z,19.23
2023-08-17T19:56:01.449Z,23.40
2023-08-17T19:58:35.097Z,19.70
2023-08-17T20:01:09.835Z,18.20
2023-08-17T20:03:41.219Z,20.70
2023-08-17T20:06:14.847Z,18.73
2023-08-17T20:08:44.900Z,17.40
2023-08-17T20:11:17.281Z,18.47
2023-08-17T20:13:47.531Z,16.20
2023-08-17T20:16:19.055Z,17.73
2023-08-17T20:18:50.834Z,15.93
2023-08-17T20:21:24.406Z,15.33
2023-08-17T20:23:55.295Z,15.80
2023-08-17T20:26:26.437Z,17.13
2023-08-17T20:28:57.402Z,15.20
2023-08-17T20:31:28.296Z,15.03
2023-08-17T20:33:59.739Z,14.57
2023-08-17T20:36:33.810Z,14.90
2023-08-17T20:39:16.796Z,17.40
2023-08-17T20:41:47.344Z,15.50
2023-08-17T20:44:19.185Z,15.77
2023-08-17T20:46:51.349Z,15.20
2023-08-17T20:49:22.086Z,15.87
2023-08-17T20:51:55.602Z,16.23
2023-08-17T20:54:25.484Z,15.20
2023-08-17T20:56:56.030Z,16.20
2023-08-17T20:59:29.273Z,15.13
2023-08-17T21:02:00.226Z,14.43
2023-08-17T21:04:31.128Z,15.43
2023-08-17T21:07:04.591Z,15.17
2023-08-17T21:09:35.181Z,14.37
2023-08-17T21:12:05.665Z,18.47
2023-08-17T21:14:36.638Z,15.50
2023-08-17T21:17:07.531Z,16.17
2023-08-17T21:19:38.435Z,15.40
2023-08-17T21:22:11.952Z,15.00
2023-08-17T21:24:41.805Z,16.73
2023-08-17T21:27:14.264Z,16.10
2023-08-17T21:29:45.196Z,16.40
2023-08-17T21:32:16.096Z,19.50
2023-08-17T21:34:49.070Z,18.20
2023-08-17T21:37:31.100Z,17.33
2023-08-17T21:40:01.236Z,18.00
2023-08-17T21:42:32.122Z,20.47
2023-08-17T21:45:03.120Z,21.47
2023-08-17T21:47:34.062Z,21.07
2023-08-17T21:52:27.620Z,17.47
2023-08-17T21:54:58.526Z,18.63
2023-08-17T21:57:29.647Z,19.47
2023-08-17T22:00:00.962Z,22.30
2023-08-17T22:02:33.042Z,20.43
2023-08-17T22:05:09.905Z,18.00
2023-08-17T22:07:43.420Z,16.30
2023-08-17T22:10:14.937Z,20.23
2023-08-17T22:12:47.772Z,16.23
2023-08-17T22:15:18.222Z,19.37
2023-08-17T22:17:49.100Z,21.00
2023-08-17T22:20:20.512Z,18.50
2023-08-17T22:22:54.034Z,19.27
2023-08-17T22:25:23.945Z,18.30
2023-08-17T22:27:54.861Z,18.87
2023-08-17T22:30:25.798Z,16.80
2023-08-17T22:32:56.848Z,16.70
2023-08-17T22:35:27.907Z,19.00
2023-08-17T22:38:01.367Z,17.83
2023-08-17T22:40:32.223Z,19.43
2023-08-17T22:43:03.201Z,23.60
2023-08-17T22:45:34.223Z,21.00
2023-08-17T22:48:05.257Z,20.73
2023-08-17T22:50:36.146Z,25.33
2023-08-17T22:53:09.710Z,19.83
2023-08-17T22:55:39.610Z,24.47
2023-08-17T22:58:10.633Z,22.50
2023-08-17T23:00:42.347Z,20.87
2023-08-17T23:03:13.336Z,22.60
2023-08-17T23:05:44.246Z,24.00
2023-08-17T23:08:17.748Z,20.47
2023-08-17T23:10:47.728Z,22.50
2023-08-17T23:13:18.626Z,21.07
2023-08-17T23:15:50.408Z,24.40
2023-08-17T23:18:21.751Z,23.07
2023-08-17T23:20:52.694Z,24.03
2023-08-17T23:23:26.185Z,22.87
2023-08-17T23:25:56.850Z,21.83
2023-08-17T23:28:27.133Z,22.60
2023-08-17T23:31:02.671Z,22.40
2023-08-17T23:33:33.774Z,23.10
2023-08-17T23:36:08.185Z,21.87
2023-08-17T23:38:41.037Z,23.80
2023-08-17T23:41:10.987Z,24.97
2023-08-17T23:43:40.828Z,21.70
2023-08-17T23:46:10.812Z,26.53
2023-08-17T23:48:41.771Z,23.47
2023-08-17T23:51:12.848Z,24.63
2023-08-17T23:53:46.382Z,27.50
2023-08-17T23:56:16.264Z,27.30
2023-08-17T23:58:49.774Z,28.20
